Time;durP1;ratioP1;P1;durP2;ratioP2;P2;SDS_P1;SDS_P2;PMS_P1;PMS_P2;Temp;Humidity;BMP_temperature;BMP_pressure;BME280_temperature;BME280_humidity;BME280_pressure;Samples;Min_cycle;Max_cycle;Signal;HPM_P1;HPM_P2
2024/03/25 00:00:20;;;;;;;0.70;0.60;;;7.80;99.90;;;;;;5033258;28;20033;-70
2024/03/25 00:02:46;;;;;;;1.02;0.57;;;7.80;99.90;;;;;;5037606;28;20025;-69
2024/03/25 00:05:14;;;;;;;1.40;1.30;;;7.90;99.90;;;;;;5041199;28;20029;-69
2024/03/25 00:07:40;;;;;;;0.98;0.95;;;7.90;99.90;;;;;;5033150;28;20140;-70
2024/03/25 00:10:08;;;;;;;1.00;0.88;;;7.90;99.90;;;;;;5032763;28;20587;-69
2024/03/25 00:12:37;;;;;;;1.20;0.93;;;7.90;99.90;;;;;;5038024;28;20124;-69
2024/03/25 00:15:03;;;;;;;0.73;0.63;;;8.00;99.90;;;;;;5036773;28;20028;-70
2024/03/25 00:17:29;;;;;;;3.65;0.98;;;8.00;99.90;;;;;;5035082;28;20465;-70
2024/03/25 00:19:54;;;;;;;3.40;1.23;;;7.90;99.90;;;;;;5039088;28;20692;-70
2024/03/25 00:22:21;;;;;;;2.20;0.75;;;7.90;99.90;;;;;;5022706;28;20120;-69
2024/03/25 00:24:48;;;;;;;0.95;0.85;;;7.80;99.90;;;;;;5032107;28;20044;-70
2024/03/25 00:27:14;;;;;;;1.20;0.80;;;7.80;99.90;;;;;;5035016;28;20037;-70
2024/03/25 00:29:40;;;;;;;5.15;1.42;;;7.90;99.90;;;;;;5038802;28;20646;-70
2024/03/25 00:32:06;;;;;;;2.22;1.33;;;7.90;99.90;;;;;;5020116;28;20033;-70
2024/03/25 00:34:32;;;;;;;3.10;1.15;;;7.90;99.90;;;;;;5034625;28;20140;-69
2024/03/25 00:36:59;;;;;;;1.65;1.00;;;7.90;99.90;;;;;;5038700;28;20041;-70
2024/03/25 00:39:25;;;;;;;2.60;1.38;;;7.90;99.90;;;;;;5023042;28;20041;-69
2024/03/25 00:41:52;;;;;;;3.92;1.85;;;7.90;99.90;;;;;;5031237;28;20048;-70
2024/03/25 00:44:17;;;;;;;2.83;1.45;;;7.90;99.90;;;;;;5033490;28;20048;-69
2024/03/25 00:46:43;;;;;;;1.98;1.30;;;7.90;99.90;;;;;;5039069;28;20115;-69
2024/03/25 00:49:09;;;;;;;3.88;1.10;;;7.80;99.90;;;;;;5036034;28;20684;-69
2024/03/25 00:51:35;;;;;;;4.03;1.27;;;7.80;99.90;;;;;;5037941;28;20078;-69
2024/03/25 00:54:01;;;;;;;2.28;1.30;;;7.80;99.90;;;;;;5039375;28;20029;-69
2024/03/25 00:56:27;;;;;;;3.78;1.80;;;7.80;99.90;;;;;;5018516;28;20112;-71
2024/03/25 00:58:53;;;;;;;3.28;1.33;;;7.80;99.90;;;;;;5031429;28;20045;-70
2024/03/25 01:01:19;;;;;;;2.08;1.10;;;7.90;99.90;;;;;;5016821;28;20025;-70
2024/03/25 01:03:45;;;;;;;1.83;1.42;;;7.90;99.90;;;;;;5037285;28;20049;-70
2024/03/25 01:06:11;;;;;;;2.50;1.55;;;7.80;99.90;;;;;;5036349;28;20484;-70
2024/03/25 01:08:37;;;;;;;2.70;1.20;;;7.80;99.90;;;;;;5039848;28;20103;-69
2024/03/25 01:11:02;;;;;;;4.20;1.58;;;7.70;99.90;;;;;;5042778;28;20036;-69
2024/03/25 01:13:28;;;;;;;3.75;1.83;;;7.70;99.90;;;;;;5024547;28;20036;-70
2024/03/25 01:15:54;;;;;;;3.40;1.55;;;7.80;99.90;;;;;;5036949;28;20129;-71
2024/03/25 01:18:19;;;;;;;5.72;1.33;;;7.80;99.90;;;;;;5039378;28;20037;-69
2024/03/25 01:20:45;;;;;;;2.92;1.83;;;7.80;99.90;;;;;;5041232;28;20044;-69
2024/03/25 01:23:11;;;;;;;4.53;1.52;;;7.80;99.90;;;;;;5037460;28;20086;-69
2024/03/25 01:25:37;;;;;;;4.85;1.90;;;7.90;99.90;;;;;;5041639;28;20163;-69
2024/03/25 01:28:03;;;;;;;5.90;2.35;;;7.90;99.90;;;;;;5042396;28;20025;-70
2024/03/25 01:30:29;;;;;;;5.75;1.52;;;7.80;99.90;;;;;;5044829;28;20028;-69
2024/03/25 01:32:55;;;;;;;3.85;2.13;;;7.80;99.90;;;;;;5036135;28;20380;-69
2024/03/25 01:35:21;;;;;;;4.32;1.92;;;7.80;99.90;;;;;;5036639;28;20036;-69
2024/03/25 01:37:47;;;;;;;2.20;1.73;;;7.80;99.90;;;;;;5040056;28;20082;-69
2024/03/25 01:40:14;;;;;;;3.78;2.05;;;7.80;99.90;;;;;;5036933;28;20115;-69
2024/03/25 01:42:41;;;;;;;3.88;2.00;;;7.90;99.90;;;;;;5037709;28;20032;-69
2024/03/25 01:45:10;;;;;;;3.05;2.25;;;7.90;99.90;;;;;;5041971;28;20793;-69
2024/03/25 01:47:38;;;;;;;4.85;1.92;;;7.80;99.90;;;;;;5042033;28;20090;-68
2024/03/25 01:50:04;;;;;;;4.90;2.35;;;7.90;99.90;;;;;;5034012;28;20025;-69
2024/03/25 01:52:30;;;;;;;3.20;2.22;;;7.80;99.90;;;;;;5022647;28;20024;-69
2024/03/25 01:54:56;;;;;;;5.22;2.03;;;7.90;99.90;;;;;;5039677;28;20037;-70
2024/03/25 01:57:22;;;;;;;3.75;2.13;;;7.90;99.90;;;;;;5038824;28;20033;-69
2024/03/25 01:59:48;;;;;;;3.78;1.77;;;7.90;99.90;;;;;;5037087;28;20033;-69
2024/03/25 02:02:14;;;;;;;3.05;1.73;;;8.00;99.90;;;;;;5043576;28;20033;-70
2024/03/25 02:04:42;;;;;;;2.90;1.63;;;8.00;99.90;;;;;;5039667;28;20030;-70
2024/03/25 02:07:10;;;;;;;4.90;2.10;;;7.90;99.90;;;;;;5038706;28;20044;-70
2024/03/25 02:09:36;;;;;;;4.63;2.03;;;7.80;99.90;;;;;;5039687;28;20028;-69
2024/03/25 02:12:03;;;;;;;6.30;1.92;;;7.80;99.90;;;;;;5040615;28;20033;-70
2024/03/25 02:14:29;;;;;;;3.33;1.80;;;7.80;99.90;;;;;;5037274;28;20121;-69
2024/03/25 02:16:55;;;;;;;2.38;1.60;;;7.90;99.90;;;;;;5039002;28;20036;-71
2024/03/25 02:19:23;;;;;;;3.00;1.58;;;7.80;99.90;;;;;;5024339;28;20047;-69
2024/03/25 02:21:49;;;;;;;2.40;1.75;;;7.80;99.90;;;;;;5037145;28;20496;-69
2024/03/25 02:24:17;;;;;;;4.30;1.63;;;7.90;99.90;;;;;;5033049;28;20044;-69
2024/03/25 02:26:43;;;;;;;4.28;1.65;;;7.90;99.90;;;;;;5039013;28;20124;-70
2024/03/25 02:29:09;;;;;;;2.83;1.30;;;7.80;99.90;;;;;;5039758;28;20034;-70
2024/03/25 02:31:35;;;;;;;3.63;1.08;;;7.80;99.90;;;;;;5038986;28;20492;-69
2024/03/25 02:34:01;;;;;;;4.45;1.00;;;7.90;99.90;;;;;;5038146;28;20033;-69
2024/03/25 02:36:27;;;;;;;1.70;1.23;;;7.90;99.90;;;;;;5042193;28;20056;-69
2024/03/25 02:38:53;;;;;;;1.73;1.00;;;7.90;99.90;;;;;;5041709;28;20047;-69
2024/03/25 02:41:19;;;;;;;2.83;1.13;;;7.80;99.90;;;;;;5036540;28;20167;-73
2024/03/25 02:43:45;;;;;;;1.83;1.05;;;7.80;99.90;;;;;;5038829;28;20020;-73
2024/03/25 02:46:11;;;;;;;6.10;1.13;;;7.80;99.90;;;;;;5037284;28;20060;-73
2024/03/25 02:48:37;;;;;;;3.40;1.27;;;7.90;99.90;;;;;;5042508;28;20037;-73
2024/03/25 02:51:02;;;;;;;1.65;0.80;;;7.90;99.90;;;;;;5042962;28;20044;-73
2024/03/25 02:53:28;;;;;;;3.92;0.90;;;7.90;99.90;;;;;;5042569;28;20041;-73
2024/03/25 02:55:54;;;;;;;2.10;0.75;;;8.00;99.90;;;;;;5037023;28;20037;-73
2024/03/25 02:58:20;;;;;;;1.27;0.50;;;8.00;99.90;;;;;;5035819;28;20116;-73
2024/03/25 03:00:45;;;;;;;1.15;0.80;;;7.90;99.90;;;;;;5040173;28;20408;-73
2024/03/25 03:03:11;;;;;;;0.90;0.70;;;7.90;99.90;;;;;;5039464;28;20041;-73
2024/03/25 03:05:37;;;;;;;1.65;0.90;;;7.80;99.90;;;;;;5037419;28;20025;-73
2024/03/25 03:08:03;;;;;;;2.78;0.57;;;7.80;99.90;;;;;;5038346;28;20029;-73
2024/03/25 03:10:29;;;;;;;4.57;0.80;;;7.80;99.90;;;;;;5042029;28;20041;-73
2024/03/25 03:12:55;;;;;;;1.60;0.80;;;7.80;99.90;;;;;;5036962;28;20040;-73
2024/03/25 03:15:20;;;;;;;1.75;0.70;;;7.80;99.90;;;;;;5034866;28;20064;-73
2024/03/25 03:17:46;;;;;;;3.45;0.80;;;7.80;99.90;;;;;;5038234;28;20063;-73
2024/03/25 03:20:12;;;;;;;1.63;0.60;;;7.80;99.90;;;;;;5038718;28;20871;-73
2024/03/25 03:22:37;;;;;;;2.60;0.93;;;7.80;99.90;;;;;;5040080;28;20033;-72
2024/03/25 03:25:04;;;;;;;2.60;0.80;;;7.80;99.90;;;;;;5018882;28;20047;-73
2024/03/25 03:27:30;;;;;;;1.88;1.20;;;7.80;99.90;;;;;;5041712;28;20674;-73
2024/03/25 03:29:56;;;;;;;3.30;0.80;;;7.80;99.90;;;;;;5040337;28;20037;-73
2024/03/25 03:32:22;;;;;;;3.15;0.68;;;7.80;99.90;;;;;;5039397;28;20059;-73
2024/03/25 03:34:47;;;;;;;1.13;0.95;;;7.80;99.90;;;;;;5039158;28;20675;-72
2024/03/25 03:37:13;;;;;;;5.45;1.10;;;7.90;99.90;;;;;;5037188;28;20532;-72
2024/03/25 03:39:39;;;;;;;3.40;1.00;;;7.80;99.90;;;;;;5040068;28;20033;-73
2024/03/25 03:42:05;;;;;;;2.25;0.73;;;7.80;99.90;;;;;;5039441;28;20025;-73
2024/03/25 03:44:30;;;;;;;2.80;0.93;;;7.90;99.90;;;;;;5041163;28;20781;-73
2024/03/25 03:46:56;;;;;;;3.67;1.50;;;7.90;99.90;;;;;;5039517;28;20040;-73
2024/03/25 03:49:22;;;;;;;3.92;1.30;;;7.80;99.90;;;;;;5018945;28;20079;-73
2024/03/25 03:51:48;;;;;;;2.83;1.20;;;7.70;99.90;;;;;;5037641;28;20881;-73
2024/03/25 03:54:13;;;;;;;3.20;1.15;;;7.70;99.90;;;;;;5037552;28;20538;-73
2024/03/25 03:56:39;;;;;;;2.40;1.40;;;7.70;99.90;;;;;;5018757;28;20123;-73
2024/03/25 03:59:05;;;;;;;5.85;1.50;;;7.70;99.90;;;;;;5038383;28;20037;-72
2024/03/25 04:01:31;;;;;;;3.03;1.30;;;7.70;99.90;;;;;;5040355;28;20059;-72
2024/03/25 04:03:56;;;;;;;3.22;1.40;;;7.70;99.90;;;;;;5037234;28;20068;-73
2024/03/25 04:06:22;;;;;;;2.35;1.02;;;7.70;99.90;;;;;;5036900;28;20086;-72
2024/03/25 04:08:48;;;;;;;3.03;1.25;;;7.70;99.90;;;;;;5040013;28;20040;-73
2024/03/25 04:11:14;;;;;;;4.43;1.27;;;7.70;99.90;;;;;;5038784;28;20556;-73
2024/03/25 04:13:40;;;;;;;3.67;1.23;;;7.60;99.90;;;;;;5036988;28;20028;-69
2024/03/25 04:16:07;;;;;;;2.25;1.08;;;7.70;99.90;;;;;;5038240;28;20781;-70
2024/03/25 04:18:33;;;;;;;2.78;0.90;;;7.80;99.90;;;;;;5040791;28;20037;-69
2024/03/25 04:20:59;;;;;;;3.63;1.40;;;7.80;99.90;;;;;;5034208;28;20029;-69
2024/03/25 04:23:26;;;;;;;5.97;1.45;;;7.80;99.90;;;;;;5039594;28;20036;-69
2024/03/25 04:25:52;;;;;;;3.13;1.50;;;7.80;99.90;;;;;;5037280;28;20582;-69
2024/03/25 04:28:18;;;;;;;2.95;1.20;;;7.80;99.90;;;;;;5038607;28;20032;-69
2024/03/25 04:30:43;;;;;;;3.10;1.02;;;7.90;99.90;;;;;;5034698;28;20032;-69
2024/03/25 04:33:09;;;;;;;3.72;1.50;;;7.90;99.90;;;;;;5038703;28;20664;-69
2024/03/25 04:35:35;;;;;;;4.90;1.45;;;7.90;99.90;;;;;;5040187;28;20029;-69
2024/03/25 04:38:02;;;;;;;5.35;1.48;;;7.90;99.90;;;;;;5037226;28;20029;-69
2024/03/25 04:40:28;;;;;;;8.55;1.75;;;7.90;99.90;;;;;;5038377;28;20093;-70
2024/03/25 04:42:54;;;;;;;3.58;1.55;;;7.80;99.90;;;;;;5037150;28;20044;-69
2024/03/25 04:45:20;;;;;;;6.18;2.20;;;7.80;99.90;;;;;;5038218;28;20400;-68
2024/03/25 04:47:46;;;;;;;3.65;1.83;;;7.80;99.90;;;;;;5036057;28;20449;-69
2024/03/25 04:50:11;;;;;;;4.78;1.55;;;7.80;99.90;;;;;;5039289;28;20108;-69
2024/03/25 04:52:37;;;;;;;7.68;2.47;;;7.80;99.90;;;;;;5040478;28;20053;-69
2024/03/25 04:55:03;;;;;;;5.85;1.60;;;7.80;99.90;;;;;;5037570;28;20020;-70
2024/03/25 04:57:29;;;;;;;3.95;1.80;;;7.80;99.90;;;;;;5038696;28;20532;-70
2024/03/25 04:59:55;;;;;;;6.00;1.92;;;7.90;99.90;;;;;;5017297;28;20115;-69
2024/03/25 05:02:20;;;;;;;8.00;1.80;;;7.90;99.90;;;;;;5038503;28;20028;-69
2024/03/25 05:04:46;;;;;;;4.72;1.55;;;7.90;99.90;;;;;;5020204;28;20032;-69
2024/03/25 05:07:12;;;;;;;5.13;2.05;;;7.90;99.90;;;;;;5038534;28;20067;-69
2024/03/25 05:09:38;;;;;;;3.45;1.95;;;7.90;99.90;;;;;;5040474;28;20029;-69
2024/03/25 05:12:04;;;;;;;3.83;1.60;;;7.80;99.90;;;;;;5036555;28;21940;-69
2024/03/25 05:14:29;;;;;;;5.80;1.50;;;7.80;99.90;;;;;;5038280;28;20094;-70
2024/03/25 05:16:56;;;;;;;5.60;1.77;;;7.80;99.90;;;;;;5036225;28;20044;-70
2024/03/25 05:19:22;;;;;;;4.75;1.88;;;7.80;99.90;;;;;;5016568;28;20049;-69
2024/03/25 05:21:48;;;;;;;3.83;1.70;;;7.90;99.90;;;;;;5037907;28;20037;-69
2024/03/25 05:24:13;;;;;;;2.30;1.38;;;7.90;99.90;;;;;;5021341;28;20041;-69
2024/03/25 05:26:39;;;;;;;4.60;1.40;;;7.90;99.90;;;;;;5039959;28;20083;-69
2024/03/25 05:29:05;;;;;;;6.88;1.73;;;7.90;99.90;;;;;;5021331;28;20030;-69
2024/03/25 05:31:32;;;;;;;5.88;2.03;;;7.90;99.90;;;;;;5038276;28;20025;-69
2024/03/25 05:34:00;;;;;;;7.25;2.45;;;7.90;99.90;;;;;;5037376;28;20060;-69
2024/03/25 05:36:25;;;;;;;6.35;1.80;;;7.80;99.90;;;;;;5037478;28;20040;-69
2024/03/25 05:38:51;;;;;;;3.60;1.60;;;7.80;99.90;;;;;;5034989;28;20039;-69
2024/03/25 05:41:17;;;;;;;4.43;1.50;;;7.80;99.90;;;;;;5039825;28;20025;-69
2024/03/25 05:43:43;;;;;;;6.00;2.47;;;7.90;99.90;;;;;;5039669;28;20041;-69
2024/03/25 05:46:09;;;;;;;4.82;1.70;;;7.90;99.90;;;;;;5037702;28;20099;-68
2024/03/25 05:48:34;;;;;;;2.00;1.15;;;7.90;99.90;;;;;;5019234;28;20036;-69
2024/03/25 05:51:05;;;;;;;3.63;1.70;;;7.90;99.90;;;;;;5014977;28;20032;-69
2024/03/25 05:53:31;;;;;;;3.35;1.50;;;7.90;99.90;;;;;;5036692;28;20029;-69
2024/03/25 05:55:59;;;;;;;3.70;1.55;;;8.00;99.90;;;;;;5037063;28;20033;-69
2024/03/25 05:58:25;;;;;;;3.60;1.33;;;7.90;99.90;;;;;;5041954;28;20451;-69
2024/03/25 06:00:52;;;;;;;2.25;1.50;;;7.90;99.90;;;;;;5041471;28;20021;-69
2024/03/25 06:03:19;;;;;;;5.57;1.52;;;8.00;99.90;;;;;;5040580;28;20099;-69
2024/03/25 06:05:45;;;;;;;4.55;1.50;;;8.00;99.90;;;;;;5041546;28;20032;-69
2024/03/25 06:08:26;;;;;;;6.03;1.63;;;8.10;99.90;;;;;;5040246;28;20057;-69
2024/03/25 06:10:53;;;;;;;2.70;1.50;;;8.00;99.90;;;;;;5039875;28;20036;-69
2024/03/25 06:13:21;;;;;;;5.88;1.52;;;8.00;99.90;;;;;;5038602;28;20043;-69
2024/03/25 06:15:47;;;;;;;3.53;1.42;;;8.00;99.90;;;;;;5042060;28;20298;-69
2024/03/25 06:18:13;;;;;;;6.47;1.63;;;8.00;99.90;;;;;;5042635;28;20041;-69
2024/03/25 06:20:39;;;;;;;5.97;3.55;;;8.10;99.90;;;;;;5039251;28;20025;-69
2024/03/25 06:23:06;;;;;;;5.18;2.53;;;8.10;99.90;;;;;;5041161;28;20117;-69
2024/03/25 06:25:33;;;;;;;6.00;3.95;;;8.10;99.90;;;;;;5041300;28;20025;-70
2024/03/25 06:27:59;;;;;;;6.97;3.50;;;8.20;99.90;;;;;;5040281;28;20037;-69
2024/03/25 06:35:53;;;;;;;11.43;3.80;;;7.90;99.90;;;;;;5038023;28;20029;-69
2024/03/25 06:38:20;;;;;;;16.15;6.80;;;8.00;99.90;;;;;;5040394;28;20017;-69
2024/03/25 06:40:46;;;;;;;7.50;2.63;;;8.00;99.90;;;;;;5040643;28;20098;-69
2024/03/25 06:43:12;;;;;;;7.07;1.95;;;8.00;99.90;;;;;;5039805;28;20105;-69
2024/03/25 06:45:38;;;;;;;6.75;2.03;;;8.00;99.90;;;;;;5025146;28;20519;-69
2024/03/25 06:48:04;;;;;;;6.28;2.05;;;8.10;99.90;;;;;;5039684;28;20041;-69
2024/03/25 06:50:30;;;;;;;4.45;1.83;;;8.10;99.90;;;;;;5042783;28;20029;-69
2024/03/25 06:52:56;;;;;;;3.22;1.80;;;8.20;99.90;;;;;;5040581;28;20510;-69
2024/03/25 06:55:27;;;;;;;5.03;1.92;;;8.30;99.90;;;;;;5040696;28;20653;-69
2024/03/25 06:57:53;;;;;;;6.47;1.75;;;8.20;99.90;;;;;;5039332;28;20041;-69
2024/03/25 07:00:22;;;;;;;5.30;1.80;;;8.30;99.90;;;;;;5039903;28;20033;-69
2024/03/25 07:02:48;;;;;;;7.13;2.38;;;8.30;99.90;;;;;;5038586;28;20040;-69
2024/03/25 07:05:14;;;;;;;3.90;1.92;;;8.20;99.90;;;;;;5041319;28;20044;-69
2024/03/25 07:07:39;;;;;;;7.78;3.42;;;8.20;99.90;;;;;;5042124;28;20087;-69
2024/03/25 07:10:06;;;;;;;8.45;2.53;;;8.20;99.90;;;;;;5019034;28;20132;-69
2024/03/25 07:12:32;;;;;;;4.95;2.58;;;8.20;99.90;;;;;;5037345;28;20043;-69
2024/03/25 07:14:57;;;;;;;5.95;2.30;;;8.20;99.90;;;;;;5037414;28;20052;-69
2024/03/25 07:17:23;;;;;;;11.25;3.30;;;8.10;99.90;;;;;;5040188;28;20056;-68
2024/03/25 07:19:51;;;;;;;7.30;2.38;;;8.20;99.90;;;;;;5039691;28;20029;-68
2024/03/25 07:22:17;;;;;;;7.35;3.15;;;8.20;99.90;;;;;;5035943;28;20036;-68
2024/03/25 07:24:43;;;;;;;3.28;2.38;;;8.10;99.90;;;;;;5038404;28;20037;-69
2024/03/25 07:27:09;;;;;;;4.88;2.42;;;8.10;99.90;;;;;;5033385;28;20041;-68
2024/03/25 07:29:35;;;;;;;4.28;1.70;;;8.10;99.90;;;;;;5019315;28;20828;-69
2024/03/25 07:32:01;;;;;;;3.40;2.42;;;8.20;99.90;;;;;;5038773;28;20025;-68
2024/03/25 07:34:27;;;;;;;7.05;2.25;;;8.30;99.90;;;;;;5036674;28;20053;-68
2024/03/25 07:36:53;;;;;;;3.72;2.03;;;8.30;99.90;;;;;;5036604;28;20045;-68
2024/03/25 07:39:19;;;;;;;10.05;4.93;;;8.40;99.90;;;;;;5019360;28;20037;-68
2024/03/25 07:41:45;;;;;;;5.07;2.40;;;8.50;99.90;;;;;;5036998;28;20563;-67
2024/03/25 07:44:10;;;;;;;6.38;2.05;;;8.60;99.90;;;;;;5034626;28;20040;-68
2024/03/25 07:46:36;;;;;;;6.00;2.30;;;8.60;99.90;;;;;;5029247;28;20516;-67
2024/03/25 07:49:02;;;;;;;6.40;2.47;;;8.70;99.90;;;;;;5055362;28;20059;-67
2024/03/25 07:51:28;;;;;;;5.95;2.50;;;8.70;99.90;;;;;;5059052;28;20044;-67
2024/03/25 07:53:54;;;;;;;8.48;3.63;;;8.80;99.90;;;;;;5059348;28;20043;-68
2024/03/25 07:56:21;;;;;;;5.35;3.30;;;8.80;99.90;;;;;;5060370;28;20033;-71
2024/03/25 07:58:46;;;;;;;6.35;2.33;;;8.90;99.90;;;;;;5059389;28;20039;-72
2024/03/25 08:01:12;;;;;;;4.35;2.00;;;9.00;99.90;;;;;;5058482;28;20758;-72
2024/03/25 08:03:38;;;;;;;6.38;2.08;;;9.10;99.90;;;;;;5060501;28;20032;-72
2024/03/25 08:06:06;;;;;;;5.50;1.60;;;9.20;99.90;;;;;;5058407;28;20669;-70
2024/03/25 08:08:32;;;;;;;2.00;1.67;;;9.40;99.90;;;;;;5061115;28;20056;-71
2024/03/25 08:10:57;;;;;;;4.63;1.45;;;9.50;99.90;;;;;;5058175;28;20060;-71
2024/03/25 08:13:23;;;;;;;4.28;1.70;;;9.60;99.90;;;;;;5060677;28;20024;-72
2024/03/25 08:15:49;;;;;;;3.53;1.60;;;9.70;99.90;;;;;;5059046;28;20073;-72
2024/03/25 08:18:14;;;;;;;6.07;2.22;;;9.80;99.90;;;;;;5059116;28;20120;-72
2024/03/25 08:20:40;;;;;;;2.55;1.38;;;9.80;99.90;;;;;;5058800;28;20477;-71
2024/03/25 08:23:06;;;;;;;2.65;1.55;;;9.80;99.90;;;;;;5058243;28;20758;-72
2024/03/25 08:25:33;;;;;;;4.03;1.73;;;9.80;99.90;;;;;;5058893;28;20051;-72
2024/03/25 08:27:58;;;;;;;5.82;2.03;;;9.70;99.90;;;;;;5058340;28;20032;-72
2024/03/25 08:30:24;;;;;;;3.22;1.77;;;9.60;99.90;;;;;;5061237;28;20070;-71
2024/03/25 08:32:51;;;;;;;4.25;2.25;;;9.60;99.90;;;;;;5056875;28;20028;-71
2024/03/25 08:35:17;;;;;;;3.72;1.50;;;9.70;99.90;;;;;;5058993;28;20024;-69
2024/03/25 08:37:43;;;;;;;3.45;1.60;;;9.70;99.90;;;;;;5058390;28;20028;-71
2024/03/25 08:40:09;;;;;;;4.75;1.88;;;9.70;99.90;;;;;;5057042;28;20492;-71
2024/03/25 08:42:35;;;;;;;4.05;2.00;;;9.70;99.90;;;;;;5057885;28;20533;-71
2024/03/25 08:45:01;;;;;;;6.20;1.63;;;9.70;99.90;;;;;;5057479;28;20035;-71
2024/03/25 08:47:27;;;;;;;7.15;1.63;;;9.70;99.90;;;;;;5047982;28;20024;-74
2024/03/25 08:49:52;;;;;;;5.15;1.50;;;9.70;99.90;;;;;;5059742;28;20586;-73
2024/03/25 08:52:18;;;;;;;5.88;1.65;;;9.70;99.90;;;;;;5056090;28;20867;-71
2024/03/25 08:54:44;;;;;;;3.35;1.48;;;9.80;99.90;;;;;;5057696;28;20036;-71
2024/03/25 08:57:10;;;;;;;3.03;1.30;;;9.90;99.90;;;;;;5055010;28;20037;-72
2024/03/25 08:59:36;;;;;;;3.63;1.33;;;9.90;99.90;;;;;;5053241;28;20052;-72
2024/03/25 09:02:02;;;;;;;6.20;1.83;;;10.10;99.90;;;;;;5057399;28;20116;-72
2024/03/25 09:04:27;;;;;;;3.72;1.30;;;10.30;99.90;;;;;;5060774;28;20067;-72
2024/03/25 09:06:53;;;;;;;4.38;1.98;;;10.50;99.90;;;;;;5057663;28;20036;-72
2024/03/25 09:12:03;;;;;;;2.75;1.40;;;11.00;99.90;;;;;;5058250;28;20119;-72
2024/03/25 09:14:29;;;;;;;4.72;1.90;;;11.00;99.90;;;;;;5057972;28;20028;-72
2024/03/25 09:16:55;;;;;;;4.07;1.40;;;11.00;99.90;;;;;;5039781;28;20146;-72
2024/03/25 09:19:20;;;;;;;3.45;1.20;;;11.00;99.90;;;;;;5059092;28;20047;-70
2024/03/25 09:21:46;;;;;;;3.83;1.40;;;11.20;99.90;;;;;;5059212;28;20039;-71
2024/03/25 09:24:12;;;;;;;2.53;1.13;;;11.50;99.90;;;;;;5058119;28;20033;-71
2024/03/25 09:26:38;;;;;;;1.67;0.95;;;11.70;99.90;;;;;;5057936;28;20032;-71
2024/03/25 09:29:04;;;;;;;1.67;1.20;;;11.90;99.90;;;;;;5043386;28;20029;-71
2024/03/25 09:31:29;;;;;;;3.05;1.23;;;12.30;99.90;;;;;;5062271;28;20032;-70
2024/03/25 09:33:55;;;;;;;1.60;1.10;;;12.50;99.90;;;;;;5061083;28;20024;-72
2024/03/25 09:36:21;;;;;;;1.70;0.90;;;12.40;99.90;;;;;;5062113;28;20025;-71
2024/03/25 09:38:48;;;;;;;3.60;1.17;;;12.30;99.90;;;;;;5064830;28;20059;-71
2024/03/25 09:41:14;;;;;;;3.45;1.15;;;12.20;99.90;;;;;;5068557;28;20375;-71
2024/03/25 09:43:54;;;;;;;3.25;1.48;;;12.10;99.90;;;;;;5066596;28;20033;-73
2024/03/25 09:46:21;;;;;;;8.52;3.35;;;12.00;99.90;;;;;;5063942;28;20044;-71
2024/03/25 09:48:47;;;;;;;3.92;1.88;;;12.00;99.90;;;;;;5061403;28;20021;-72
2024/03/25 09:51:12;;;;;;;5.55;2.45;;;11.90;99.90;;;;;;5060238;28;20736;-72
2024/03/25 09:53:38;;;;;;;7.03;6.32;;;11.90;99.90;;;;;;5062643;28;20067;-71
2024/03/25 09:56:05;;;;;;;5.93;4.60;;;12.00;99.90;;;;;;5061397;28;20032;-72
2024/03/25 09:58:32;;;;;;;4.00;1.77;;;12.00;99.90;;;;;;5059443;28;20155;-70
2024/03/25 10:00:59;;;;;;;2.35;1.40;;;12.00;99.90;;;;;;5059341;28;20032;-70
2024/03/25 10:03:25;;;;;;;4.25;1.85;;;12.00;99.90;;;;;;5060766;28;20118;-70
2024/03/25 10:05:51;;;;;;;4.28;1.50;;;11.80;99.90;;;;;;5060183;28;20041;-70
2024/03/25 10:08:21;;;;;;;2.03;1.05;;;11.80;99.90;;;;;;5060078;28;20854;-72
2024/03/25 10:10:47;;;;;;;3.50;1.35;;;11.80;99.90;;;;;;5061712;28;20048;-70
2024/03/25 10:13:12;;;;;;;3.65;1.50;;;11.80;99.90;;;;;;5059763;28;20159;-70
2024/03/25 10:15:38;;;;;;;3.38;1.23;;;11.70;99.90;;;;;;5061765;28;20024;-70
2024/03/25 10:18:04;;;;;;;3.85;1.60;;;11.70;99.90;;;;;;5059431;28;20025;-70
2024/03/25 10:20:30;;;;;;;3.40;1.20;;;11.80;99.90;;;;;;5060312;28;20081;-69
2024/03/25 10:22:57;;;;;;;4.15;1.52;;;11.90;99.90;;;;;;5060568;28;20048;-69
2024/03/25 10:25:31;;;;;;;2.90;1.50;;;12.00;99.90;;;;;;5047116;28;20089;-69
2024/03/25 10:28:01;;;;;;;3.58;1.40;;;12.30;99.90;;;;;;5061625;28;20062;-70
2024/03/25 10:30:27;;;;;;;3.95;1.20;;;12.10;99.90;;;;;;5058822;28;20078;-70
2024/03/25 10:32:59;;;;;;;4.15;1.33;;;12.00;99.90;;;;;;5060836;28;20032;-70
2024/03/25 10:35:27;;;;;;;3.53;1.20;;;11.90;99.90;;;;;;5059878;28;20086;-69
2024/03/25 10:37:58;;;;;;;2.92;1.70;;;11.90;99.90;;;;;;5061012;28;20071;-69
2024/03/25 10:40:45;;;;;;;2.75;1.40;;;11.90;99.90;;;;;;5057113;28;20040;-69
2024/03/25 10:43:13;;;;;;;3.67;1.20;;;11.80;99.90;;;;;;5061199;28;20032;-69
2024/03/25 10:45:44;;;;;;;3.30;1.20;;;11.80;99.90;;;;;;5062545;28;20411;-71
2024/03/25 10:48:17;;;;;;;3.58;1.10;;;11.70;99.90;;;;;;5059521;28;20790;-69
2024/03/25 10:50:46;;;;;;;6.75;1.17;;;11.60;99.90;;;;;;5058086;28;20807;-70
2024/03/25 10:53:14;;;;;;;5.22;1.88;;;11.50;99.90;;;;;;5059130;28;20024;-70
2024/03/25 10:55:41;;;;;;;3.78;1.40;;;11.40;99.90;;;;;;5059621;28;20131;-68
2024/03/25 10:58:07;;;;;;;2.58;1.25;;;11.30;99.90;;;;;;5058268;28;20123;-69
2024/03/25 11:00:36;;;;;;;2.30;1.40;;;11.40;99.90;;;;;;5061816;28;20552;-75
2024/03/25 11:03:02;;;;;;;4.85;1.45;;;11.30;99.90;;;;;;5062132;28;20427;-69
2024/03/25 11:05:29;;;;;;;2.65;1.42;;;11.40;99.90;;;;;;5057385;28;20757;-70
2024/03/25 11:07:55;;;;;;;2.80;1.08;;;11.50;99.90;;;;;;5058181;28;20578;-70
2024/03/25 11:10:29;;;;;;;1.40;1.00;;;11.70;99.90;;;;;;5059365;28;20025;-71
2024/03/25 11:12:55;;;;;;;5.72;2.08;;;11.90;99.90;;;;;;5058587;28;20056;-69
2024/03/25 11:15:21;;;;;;;2.95;1.67;;;12.40;99.90;;;;;;5061040;28;20127;-70
2024/03/25 11:17:50;;;;;;;6.82;2.58;;;12.50;99.90;;;;;;5060885;28;20075;-70
2024/03/25 11:20:17;;;;;;;4.97;2.67;;;12.70;99.90;;;;;;5061347;28;20451;-70
2024/03/25 11:22:50;;;;;;;6.68;3.30;;;12.90;99.90;;;;;;5059951;28;20028;-70
2024/03/25 11:25:16;;;;;;;3.35;1.45;;;13.10;99.90;;;;;;5058590;28;20036;-70
2024/03/25 11:27:44;;;;;;;21.88;9.13;;;13.40;99.90;;;;;;5058164;28;20032;-69
2024/03/25 11:30:14;;;;;;;7.05;3.38;;;13.60;99.90;;;;;;5059391;28;20035;-69
2024/03/25 11:32:53;;;;;;;6.38;3.08;;;13.60;99.70;;;;;;5057741;28;20036;-69
2024/03/25 11:35:20;;;;;;;15.70;5.95;;;13.70;99.40;;;;;;5047926;28;20483;-69
2024/03/25 11:37:46;;;;;;;3.90;1.50;;;13.70;97.40;;;;;;5058528;28;20028;-72
2024/03/25 11:40:14;;;;;;;4.18;1.77;;;13.60;97.10;;;;;;5059818;28;20438;-70
2024/03/25 11:42:41;;;;;;;2.58;0.88;;;13.60;97.50;;;;;;5045591;28;20596;-70
2024/03/25 11:45:07;;;;;;;2.38;1.05;;;13.60;97.10;;;;;;5059081;28;20032;-70
2024/03/25 11:47:33;;;;;;;3.45;1.35;;;13.40;97.00;;;;;;5059130;28;20028;-70
2024/03/25 11:50:07;;;;;;;3.80;2.15;;;13.30;97.90;;;;;;5058490;28;20056;-70
2024/03/25 11:52:32;;;;;;;3.55;1.45;;;13.30;97.70;;;;;;5059400;28;20181;-72
2024/03/25 11:54:58;;;;;;;4.72;1.38;;;13.20;97.00;;;;;;5056277;28;20032;-71
2024/03/25 11:57:24;;;;;;;2.97;1.52;;;13.10;96.60;;;;;;5040092;28;20037;-72
2024/03/25 11:59:50;;;;;;;3.70;1.55;;;13.20;97.00;;;;;;5058830;28;20391;-69
2024/03/25 12:02:16;;;;;;;4.72;2.75;;;13.10;96.20;;;;;;5058836;28;20037;-70
2024/03/25 12:04:43;;;;;;;12.27;6.30;;;13.00;96.80;;;;;;5059225;28;20395;-70
2024/03/25 12:07:12;;;;;;;3.72;1.67;;;12.90;97.70;;;;;;5059084;28;20561;-70
2024/03/25 12:12:22;;;;;;;1.77;0.90;;;12.50;97.80;;;;;;5057150;28;20804;-70
2024/03/25 12:14:49;;;;;;;1.98;0.85;;;12.40;98.10;;;;;;5045675;28;20024;-70
2024/03/25 12:17:15;;;;;;;2.15;0.90;;;12.40;99.20;;;;;;5058360;28;20041;-70
2024/03/25 12:19:44;;;;;;;1.48;0.82;;;12.40;99.40;;;;;;5044718;28;20025;-70
2024/03/25 12:22:10;;;;;;;2.50;0.85;;;12.50;99.40;;;;;;5056828;28;20079;-70
2024/03/25 12:24:37;;;;;;;1.65;0.93;;;12.60;99.60;;;;;;5059526;28;20132;-70
2024/03/25 12:27:04;;;;;;;3.70;0.73;;;12.80;99.30;;;;;;5059586;28;20597;-70
2024/03/25 12:29:31;;;;;;;2.83;0.82;;;13.00;98.30;;;;;;5057339;28;20399;-70
2024/03/25 12:31:57;;;;;;;1.98;0.82;;;13.10;98.30;;;;;;5057498;28;20068;-70
2024/03/25 12:34:25;;;;;;;3.55;1.08;;;13.10;98.70;;;;;;5058211;28;21682;-69
2024/03/25 12:36:51;;;;;;;1.73;0.93;;;13.00;97.50;;;;;;5057466;28;20025;-70
2024/03/25 12:39:19;;;;;;;1.98;1.10;;;12.90;98.70;;;;;;5056937;28;20039;-70
2024/03/25 12:41:45;;;;;;;1.38;0.88;;;12.90;97.60;;;;;;5058846;28;20124;-70
2024/03/25 12:44:15;;;;;;;1.02;0.70;;;12.80;98.10;;;;;;5058763;28;20028;-70
2024/03/25 12:46:40;;;;;;;0.73;0.70;;;12.80;99.20;;;;;;5057229;28;20047;-71
2024/03/25 12:49:06;;;;;;;2.63;0.90;;;12.80;98.30;;;;;;5056708;28;20028;-70
2024/03/25 12:51:32;;;;;;;1.45;0.88;;;12.90;98.20;;;;;;5059196;28;20021;-70
2024/03/25 12:53:58;;;;;;;2.95;0.90;;;13.00;98.10;;;;;;5056352;28;20029;-70
2024/03/25 12:56:24;;;;;;;1.48;0.98;;;13.00;97.90;;;;;;5058132;28;20115;-70
2024/03/25 12:58:51;;;;;;;1.65;1.05;;;12.90;97.70;;;;;;5063999;28;20399;-70